sensor_id;sensor_type;location;lat;lon;timestamp;P1;durP1;ratioP1;P2;durP2;ratioP2
49678;SDS011;35570;48.218;16.326;2023-06-04T00:01:19;6.90;;;3.80;;
49678;SDS011;35570;48.218;16.326;2023-06-04T00:03:45;5.93;;;3.42;;
49678;SDS011;35570;48.218;16.326;2023-06-04T00:06:11;8.43;;;3.05;;
49678;SDS011;35570;48.218;16.326;2023-06-04T00:08:36;5.57;;;2.40;;
49678;SDS011;35570;48.218;16.326;2023-06-04T00:11:02;11.73;;;2.75;;
49678;SDS011;35570;48.218;16.326;2023-06-04T00:13:27;6.28;;;3.05;;
49678;SDS011;35570;48.218;16.326;2023-06-04T00:15:53;7.07;;;5.72;;
49678;SDS011;35570;48.218;16.326;2023-06-04T00:18:19;8.32;;;5.45;;
49678;SDS011;35570;48.218;16.326;2023-06-04T00:20:44;5.80;;;3.22;;
49678;SDS011;35570;48.218;16.326;2023-06-04T00:23:10;4.03;;;2.80;;
49678;SDS011;35570;48.218;16.326;2023-06-04T00:25:36;6.38;;;2.80;;
49678;SDS011;35570;48.218;16.326;2023-06-04T00:28:01;3.72;;;2.70;;
49678;SDS011;35570;48.218;16.326;2023-06-04T00:30:27;4.80;;;2.80;;
49678;SDS011;35570;48.218;16.326;2023-06-04T00:32:53;4.28;;;2.47;;
49678;SDS011;35570;48.218;16.326;2023-06-04T00:35:18;4.90;;;3.03;;
49678;SDS011;35570;48.218;16.326;2023-06-04T00:37:45;5.97;;;2.40;;
49678;SDS011;35570;48.218;16.326;2023-06-04T00:40:11;4.35;;;2.58;;
49678;SDS011;35570;48.218;16.326;2023-06-04T00:42:37;4.85;;;2.28;;
49678;SDS011;35570;48.218;16.326;2023-06-04T00:45:03;4.75;;;2.75;;
49678;SDS011;35570;48.218;16.326;2023-06-04T00:47:32;4.85;;;2.55;;
49678;SDS011;35570;48.218;16.326;2023-06-04T00:49:58;5.00;;;2.17;;
49678;SDS011;35570;48.218;16.326;2023-06-04T00:52:24;5.60;;;2.70;;
49678;SDS011;35570;48.218;16.326;2023-06-04T00:54:51;3.88;;;2.45;;
49678;SDS011;35570;48.218;16.326;2023-06-04T00:57:19;8.15;;;2.60;;
49678;SDS011;35570;48.218;16.326;2023-06-04T00:59:46;5.40;;;2.30;;
49678;SDS011;35570;48.218;16.326;2023-06-04T01:02:13;5.72;;;2.78;;
49678;SDS011;35570;48.218;16.326;2023-06-04T01:04:54;3.60;;;2.13;;
49678;SDS011;35570;48.218;16.326;2023-06-04T01:07:45;5.20;;;2.58;;
49678;SDS011;35570;48.218;16.326;2023-06-04T01:10:12;6.70;;;2.47;;
49678;SDS011;35570;48.218;16.326;2023-06-04T01:12:42;5.38;;;2.25;;
49678;SDS011;35570;48.218;16.326;2023-06-04T01:15:10;4.20;;;2.42;;
49678;SDS011;35570;48.218;16.326;2023-06-04T01:17:43;6.30;;;2.97;;
49678;SDS011;35570;48.218;16.326;2023-06-04T01:25:35;5.97;;;3.10;;
49678;SDS011;35570;48.218;16.326;2023-06-04T01:28:07;5.88;;;2.90;;
49678;SDS011;35570;48.218;16.326;2023-06-04T01:30:36;7.00;;;3.85;;
49678;SDS011;35570;48.218;16.326;2023-06-04T01:33:08;7.00;;;3.45;;
49678;SDS011;35570;48.218;16.326;2023-06-04T01:35:35;5.05;;;3.55;;
49678;SDS011;35570;48.218;16.326;2023-06-04T01:38:01;7.90;;;4.07;;
49678;SDS011;35570;48.218;16.326;2023-06-04T01:40:27;7.82;;;3.65;;
49678;SDS011;35570;48.218;16.326;2023-06-04T01:42:53;5.53;;;3.28;;
49678;SDS011;35570;48.218;16.326;2023-06-04T01:45:20;2.72;;;2.33;;
49678;SDS011;35570;48.218;16.326;2023-06-04T01:47:46;4.47;;;3.35;;
49678;SDS011;35570;48.218;16.326;2023-06-04T01:50:12;6.03;;;2.75;;
49678;SDS011;35570;48.218;16.326;2023-06-04T01:52:40;5.65;;;2.20;;
49678;SDS011;35570;48.218;16.326;2023-06-04T01:55:07;7.63;;;3.58;;
49678;SDS011;35570;48.218;16.326;2023-06-04T01:57:36;6.13;;;2.60;;
49678;SDS011;35570;48.218;16.326;2023-06-04T02:00:03;7.28;;;5.22;;
49678;SDS011;35570;48.218;16.326;2023-06-04T02:02:33;6.38;;;4.47;;
49678;SDS011;35570;48.218;16.326;2023-06-04T02:04:58;5.07;;;3.20;;
49678;SDS011;35570;48.218;16.326;2023-06-04T02:07:24;8.25;;;5.05;;
49678;SDS011;35570;48.218;16.326;2023-06-04T02:09:51;5.15;;;2.83;;
49678;SDS011;35570;48.218;16.326;2023-06-04T02:12:17;4.82;;;3.65;;
49678;SDS011;35570;48.218;16.326;2023-06-04T02:14:43;8.38;;;4.38;;
49678;SDS011;35570;48.218;16.326;2023-06-04T02:17:12;7.22;;;4.22;;
49678;SDS011;35570;48.218;16.326;2023-06-04T02:19:38;8.98;;;4.65;;
49678;SDS011;35570;48.218;16.326;2023-06-04T02:22:12;7.90;;;3.85;;
49678;SDS011;35570;48.218;16.326;2023-06-04T02:24:38;6.15;;;3.35;;
49678;SDS011;35570;48.218;16.326;2023-06-04T02:27:07;6.30;;;4.45;;
49678;SDS011;35570;48.218;16.326;2023-06-04T02:29:33;9.40;;;3.78;;
49678;SDS011;35570;48.218;16.326;2023-06-04T02:31:59;6.50;;;3.95;;
49678;SDS011;35570;48.218;16.326;2023-06-04T02:34:24;6.68;;;3.50;;
49678;SDS011;35570;48.218;16.326;2023-06-04T02:36:50;5.93;;;3.90;;
49678;SDS011;35570;48.218;16.326;2023-06-04T02:39:16;6.18;;;3.88;;
49678;SDS011;35570;48.218;16.326;2023-06-04T02:41:43;8.25;;;3.85;;
49678;SDS011;35570;48.218;16.326;2023-06-04T02:44:09;5.80;;;3.05;;
49678;SDS011;35570;48.218;16.326;2023-06-04T02:46:34;5.55;;;3.20;;
49678;SDS011;35570;48.218;16.326;2023-06-04T02:49:00;5.32;;;2.42;;
49678;SDS011;35570;48.218;16.326;2023-06-04T02:51:25;4.18;;;3.13;;
49678;SDS011;35570;48.218;16.326;2023-06-04T02:53:53;5.07;;;2.90;;
49678;SDS011;35570;48.218;16.326;2023-06-04T02:56:19;4.32;;;2.83;;
49678;SDS011;35570;48.218;16.326;2023-06-04T02:58:54;8.35;;;3.50;;
49678;SDS011;35570;48.218;16.326;2023-06-04T03:01:24;5.13;;;3.05;;
49678;SDS011;35570;48.218;16.326;2023-06-04T03:03:51;5.20;;;2.85;;
49678;SDS011;35570;48.218;16.326;2023-06-04T03:06:17;5.50;;;2.80;;
49678;SDS011;35570;48.218;16.326;2023-06-04T03:08:50;3.72;;;2.90;;
49678;SDS011;35570;48.218;16.326;2023-06-04T03:11:18;5.38;;;3.50;;
49678;SDS011;35570;48.218;16.326;2023-06-04T03:13:46;5.78;;;3.60;;
49678;SDS011;35570;48.218;16.326;2023-06-04T03:16:13;7.88;;;4.07;;
49678;SDS011;35570;48.218;16.326;2023-06-04T03:18:42;6.05;;;3.42;;
49678;SDS011;35570;48.218;16.326;2023-06-04T03:21:08;5.97;;;2.80;;
49678;SDS011;35570;48.218;16.326;2023-06-04T03:23:36;7.20;;;3.45;;
49678;SDS011;35570;48.218;16.326;2023-06-04T03:26:03;7.30;;;3.33;;
49678;SDS011;35570;48.218;16.326;2023-06-04T03:28:30;5.95;;;3.80;;
49678;SDS011;35570;48.218;16.326;2023-06-04T03:31:03;6.88;;;4.35;;
49678;SDS011;35570;48.218;16.326;2023-06-04T03:33:34;7.60;;;4.30;;
49678;SDS011;35570;48.218;16.326;2023-06-04T03:36:00;3.72;;;2.63;;
49678;SDS011;35570;48.218;16.326;2023-06-04T03:38:26;4.32;;;3.35;;
49678;SDS011;35570;48.218;16.326;2023-06-04T03:40:52;10.27;;;2.20;;
49678;SDS011;35570;48.218;16.326;2023-06-04T03:43:18;3.53;;;2.00;;
49678;SDS011;35570;48.218;16.326;2023-06-04T03:45:52;4.30;;;2.15;;
49678;SDS011;35570;48.218;16.326;2023-06-04T03:48:17;3.25;;;2.15;;
49678;SDS011;35570;48.218;16.326;2023-06-04T03:50:43;3.58;;;2.50;;
49678;SDS011;35570;48.218;16.326;2023-06-04T03:53:10;5.80;;;3.20;;
49678;SDS011;35570;48.218;16.326;2023-06-04T03:55:36;6.55;;;3.30;;
49678;SDS011;35570;48.218;16.326;2023-06-04T03:58:02;5.75;;;3.35;;
49678;SDS011;35570;48.218;16.326;2023-06-04T04:00:28;6.18;;;3.97;;
49678;SDS011;35570;48.218;16.326;2023-06-04T04:02:53;8.25;;;2.80;;
49678;SDS011;35570;48.218;16.326;2023-06-04T04:05:21;5.03;;;2.15;;
49678;SDS011;35570;48.218;16.326;2023-06-04T04:07:46;4.90;;;2.28;;
49678;SDS011;35570;48.218;16.326;2023-06-04T04:10:13;6.18;;;2.72;;
49678;SDS011;35570;48.218;16.326;2023-06-04T04:12:38;5.88;;;3.22;;
49678;SDS011;35570;48.218;16.326;2023-06-04T04:15:04;7.18;;;2.78;;
49678;SDS011;35570;48.218;16.326;2023-06-04T04:17:30;6.43;;;2.78;;
49678;SDS011;35570;48.218;16.326;2023-06-04T04:19:56;4.78;;;2.53;;
49678;SDS011;35570;48.218;16.326;2023-06-04T04:22:21;4.60;;;2.67;;
49678;SDS011;35570;48.218;16.326;2023-06-04T04:24:47;4.10;;;2.58;;
49678;SDS011;35570;48.218;16.326;2023-06-04T04:27:12;6.00;;;2.53;;
49678;SDS011;35570;48.218;16.326;2023-06-04T04:29:38;3.53;;;2.20;;
49678;SDS011;35570;48.218;16.326;2023-06-04T04:32:04;4.00;;;2.20;;
49678;SDS011;35570;48.218;16.326;2023-06-04T04:34:37;6.75;;;2.80;;
49678;SDS011;35570;48.218;16.326;2023-06-04T04:37:04;2.92;;;2.20;;
49678;SDS011;35570;48.218;16.326;2023-06-04T04:39:33;5.38;;;2.78;;
49678;SDS011;35570;48.218;16.326;2023-06-04T04:41:59;4.38;;;2.50;;
49678;SDS011;35570;48.218;16.326;2023-06-04T04:44:25;7.72;;;3.05;;
49678;SDS011;35570;48.218;16.326;2023-06-04T04:46:51;5.35;;;2.67;;
49678;SDS011;35570;48.218;16.326;2023-06-04T04:49:16;5.95;;;2.55;;
49678;SDS011;35570;48.218;16.326;2023-06-04T04:51:42;6.65;;;2.83;;
49678;SDS011;35570;48.218;16.326;2023-06-04T04:54:07;6.63;;;2.35;;
49678;SDS011;35570;48.218;16.326;2023-06-04T04:56:33;4.50;;;2.50;;
49678;SDS011;35570;48.218;16.326;2023-06-04T04:59:00;7.30;;;2.78;;
49678;SDS011;35570;48.218;16.326;2023-06-04T05:01:26;5.45;;;2.60;;
49678;SDS011;35570;48.218;16.326;2023-06-04T05:03:52;5.13;;;2.50;;
49678;SDS011;35570;48.218;16.326;2023-06-04T05:06:17;4.82;;;2.80;;
49678;SDS011;35570;48.218;16.326;2023-06-04T05:08:43;3.20;;;2.30;;
49678;SDS011;35570;48.218;16.326;2023-06-04T05:11:10;5.65;;;2.75;;
49678;SDS011;35570;48.218;16.326;2023-06-04T05:13:35;4.88;;;2.97;;
49678;SDS011;35570;48.218;16.326;2023-06-04T05:16:01;7.28;;;2.63;;
49678;SDS011;35570;48.218;16.326;2023-06-04T05:18:36;6.63;;;3.80;;
49678;SDS011;35570;48.218;16.326;2023-06-04T05:21:05;7.10;;;3.97;;
49678;SDS011;35570;48.218;16.326;2023-06-04T05:23:32;5.93;;;2.63;;
49678;SDS011;35570;48.218;16.326;2023-06-04T05:25:59;5.18;;;2.47;;
49678;SDS011;35570;48.218;16.326;2023-06-04T05:28:26;3.95;;;2.60;;
49678;SDS011;35570;48.218;16.326;2023-06-04T05:30:52;6.28;;;2.97;;
49678;SDS011;35570;48.218;16.326;2023-06-04T05:33:23;7.35;;;2.58;;
49678;SDS011;35570;48.218;16.326;2023-06-04T05:35:49;4.30;;;2.78;;
49678;SDS011;35570;48.218;16.326;2023-06-04T05:38:17;4.55;;;2.55;;
49678;SDS011;35570;48.218;16.326;2023-06-04T05:40:46;4.53;;;2.65;;
49678;SDS011;35570;48.218;16.326;2023-06-04T05:43:12;8.07;;;3.10;;
49678;SDS011;35570;48.218;16.326;2023-06-04T05:45:37;5.00;;;3.25;;
49678;SDS011;35570;48.218;16.326;2023-06-04T05:48:04;4.78;;;2.40;;
49678;SDS011;35570;48.218;16.326;2023-06-04T05:50:29;6.07;;;2.40;;
49678;SDS011;35570;48.218;16.326;2023-06-04T05:52:56;5.55;;;2.72;;
49678;SDS011;35570;48.218;16.326;2023-06-04T05:55:22;7.60;;;2.83;;
49678;SDS011;35570;48.218;16.326;2023-06-04T05:57:48;4.95;;;3.65;;
49678;SDS011;35570;48.218;16.326;2023-06-04T06:00:17;4.75;;;3.10;;
49678;SDS011;35570;48.218;16.326;2023-06-04T06:02:43;4.47;;;2.90;;
49678;SDS011;35570;48.218;16.326;2023-06-04T06:05:10;4.50;;;2.65;;
49678;SDS011;35570;48.218;16.326;2023-06-04T06:07:36;6.78;;;3.10;;
49678;SDS011;35570;48.218;16.326;2023-06-04T06:10:02;5.05;;;3.40;;
49678;SDS011;35570;48.218;16.326;2023-06-04T06:12:28;5.85;;;3.03;;
49678;SDS011;35570;48.218;16.326;2023-06-04T06:14:53;6.03;;;2.72;;
49678;SDS011;35570;48.218;16.326;2023-06-04T06:17:19;5.10;;;3.13;;
49678;SDS011;35570;48.218;16.326;2023-06-04T06:19:45;6.65;;;3.78;;
49678;SDS011;35570;48.218;16.326;2023-06-04T06:22:10;5.40;;;3.13;;
49678;SDS011;35570;48.218;16.326;2023-06-04T06:24:37;3.17;;;2.72;;
49678;SDS011;35570;48.218;16.326;2023-06-04T06:27:04;5.82;;;3.15;;
49678;SDS011;35570;48.218;16.326;2023-06-04T06:29:29;3.92;;;2.78;;
49678;SDS011;35570;48.218;16.326;2023-06-04T06:31:55;4.43;;;2.47;;
49678;SDS011;35570;48.218;16.326;2023-06-04T06:34:21;4.93;;;3.42;;
49678;SDS011;35570;48.218;16.326;2023-06-04T06:36:46;3.88;;;2.70;;
49678;SDS011;35570;48.218;16.326;2023-06-04T06:39:13;4.35;;;2.65;;
49678;SDS011;35570;48.218;16.326;2023-06-04T06:41:38;5.43;;;3.42;;
49678;SDS011;35570;48.218;16.326;2023-06-04T06:44:04;4.50;;;3.90;;
49678;SDS011;35570;48.218;16.326;2023-06-04T06:46:30;7.05;;;3.97;;
49678;SDS011;35570;48.218;16.326;2023-06-04T06:48:56;5.70;;;4.40;;
49678;SDS011;35570;48.218;16.326;2023-06-04T06:51:22;7.45;;;3.25;;
49678;SDS011;35570;48.218;16.326;2023-06-04T06:53:51;5.78;;;3.13;;
49678;SDS011;35570;48.218;16.326;2023-06-04T06:56:17;5.63;;;2.75;;
49678;SDS011;35570;48.218;16.326;2023-06-04T06:58:43;6.65;;;3.05;;
49678;SDS011;35570;48.218;16.326;2023-06-04T07:01:10;5.68;;;3.13;;
49678;SDS011;35570;48.218;16.326;2023-06-04T07:03:36;4.55;;;3.10;;
49678;SDS011;35570;48.218;16.326;2023-06-04T07:06:03;4.40;;;2.78;;
49678;SDS011;35570;48.218;16.326;2023-06-04T07:08:29;5.13;;;3.00;;
49678;SDS011;35570;48.218;16.326;2023-06-04T07:10:54;5.28;;;2.97;;
49678;SDS011;35570;48.218;16.326;2023-06-04T07:13:20;4.70;;;2.85;;
49678;SDS011;35570;48.218;16.326;2023-06-04T07:15:46;5.78;;;2.72;;
49678;SDS011;35570;48.218;16.326;2023-06-04T07:18:11;8.32;;;3.20;;
49678;SDS011;35570;48.218;16.326;2023-06-04T07:20:37;4.82;;;3.10;;
49678;SDS011;35570;48.218;16.326;2023-06-04T07:23:03;4.97;;;2.90;;
49678;SDS011;35570;48.218;16.326;2023-06-04T07:25:29;5.68;;;2.70;;
49678;SDS011;35570;48.218;16.326;2023-06-04T07:27:55;10.50;;;3.45;;
49678;SDS011;35570;48.218;16.326;2023-06-04T07:30:24;4.95;;;3.00;;
49678;SDS011;35570;48.218;16.326;2023-06-04T07:32:53;4.10;;;2.72;;
49678;SDS011;35570;48.218;16.326;2023-06-04T07:35:18;5.20;;;3.03;;
49678;SDS011;35570;48.218;16.326;2023-06-04T07:37:44;4.85;;;2.75;;
49678;SDS011;35570;48.218;16.326;2023-06-04T07:40:12;6.18;;;2.85;;
49678;SDS011;35570;48.218;16.326;2023-06-04T07:42:38;4.80;;;2.30;;
49678;SDS011;35570;48.218;16.326;2023-06-04T07:45:05;5.80;;;2.60;;
49678;SDS011;35570;48.218;16.326;2023-06-04T07:47:31;4.22;;;2.78;;
49678;SDS011;35570;48.218;16.326;2023-06-04T07:49:56;3.72;;;2.53;;
49678;SDS011;35570;48.218;16.326;2023-06-04T07:52:22;7.93;;;2.97;;
49678;SDS011;35570;48.218;16.326;2023-06-04T07:54:48;5.05;;;3.05;;
49678;SDS011;35570;48.218;16.326;2023-06-04T07:57:13;7.07;;;2.65;;
49678;SDS011;35570;48.218;16.326;2023-06-04T07:59:39;5.72;;;3.28;;
49678;SDS011;35570;48.218;16.326;2023-06-04T08:02:05;6.25;;;2.50;;
49678;SDS011;35570;48.218;16.326;2023-06-04T08:04:30;5.15;;;2.80;;
49678;SDS011;35570;48.218;16.326;2023-06-04T08:06:56;4.85;;;2.38;;
49678;SDS011;35570;48.218;16.326;2023-06-04T08:09:22;7.40;;;2.92;;
49678;SDS011;35570;48.218;16.326;2023-06-04T08:11:48;4.38;;;2.70;;
49678;SDS011;35570;48.218;16.326;2023-06-04T08:14:14;5.68;;;2.67;;
49678;SDS011;35570;48.218;16.326;2023-06-04T08:16:40;5.50;;;2.67;;
49678;SDS011;35570;48.218;16.326;2023-06-04T08:19:06;4.28;;;2.55;;
49678;SDS011;35570;48.218;16.326;2023-06-04T08:21:32;3.30;;;2.45;;
49678;SDS011;35570;48.218;16.326;2023-06-04T08:23:59;4.78;;;3.10;;
49678;SDS011;35570;48.218;16.326;2023-06-04T08:26:25;6.57;;;3.45;;
49678;SDS011;35570;48.218;16.326;2023-06-04T08:28:52;7.47;;;2.85;;
49678;SDS011;35570;48.218;16.326;2023-06-04T08:31:17;3.13;;;2.30;;
49678;SDS011;35570;48.218;16.326;2023-06-04T08:33:46;6.55;;;2.90;;
49678;SDS011;35570;48.218;16.326;2023-06-04T08:36:12;4.70;;;2.35;;
49678;SDS011;35570;48.218;16.326;2023-06-04T08:38:37;7.15;;;2.97;;
49678;SDS011;35570;48.218;16.326;2023-06-04T08:41:09;5.70;;;2.97;;
49678;SDS011;35570;48.218;16.326;2023-06-04T08:43:40;8.55;;;3.22;;
49678;SDS011;35570;48.218;16.326;2023-06-04T08:46:09;5.97;;;3.10;;
49678;SDS011;35570;48.218;16.326;2023-06-04T08:48:35;9.13;;;2.78;;
49678;SDS011;35570;48.218;16.326;2023-06-04T08:51:02;3.35;;;2.65;;
49678;SDS011;35570;48.218;16.326;2023-06-04T08:53:32;7.15;;;3.17;;
49678;SDS011;35570;48.218;16.326;2023-06-04T08:55:58;4.72;;;2.40;;
49678;SDS011;35570;48.218;16.326;2023-06-04T08:58:24;5.13;;;2.97;;
49678;SDS011;35570;48.218;16.326;2023-06-04T09:00:51;3.83;;;2.60;;
49678;SDS011;35570;48.218;16.326;2023-06-04T09:03:16;5.60;;;2.50;;
49678;SDS011;35570;48.218;16.326;2023-06-04T09:05:45;5.82;;;2.65;;
49678;SDS011;35570;48.218;16.326;2023-06-04T09:08:14;7.60;;;2.85;;
49678;SDS011;35570;48.218;16.326;2023-06-04T09:10:43;4.75;;;2.65;;
49678;SDS011;35570;48.218;16.326;2023-06-04T09:13:14;6.55;;;2.75;;
49678;SDS011;35570;48.218;16.326;2023-06-04T09:15:42;6.93;;;4.75;;
49678;SDS011;35570;48.218;16.326;2023-06-04T09:18:07;10.27;;;3.40;;
49678;SDS011;35570;48.218;16.326;2023-06-04T09:20:33;6.72;;;3.20;;
49678;SDS011;35570;48.218;16.326;2023-06-04T09:22:59;5.60;;;2.55;;
49678;SDS011;35570;48.218;16.326;2023-06-04T09:25:26;9.73;;;5.30;;
49678;SDS011;35570;48.218;16.326;2023-06-04T09:27:53;7.05;;;4.50;;
49678;SDS011;35570;48.218;16.326;2023-06-04T09:30:22;9.60;;;8.57;;
49678;SDS011;35570;48.218;16.326;2023-06-04T09:32:48;7.47;;;3.95;;
49678;SDS011;35570;48.218;16.326;2023-06-04T09:35:15;6.82;;;4.55;;
49678;SDS011;35570;48.218;16.326;2023-06-04T09:37:56;7.43;;;4.88;;
49678;SDS011;35570;48.218;16.326;2023-06-04T09:40:22;11.27;;;8.52;;
49678;SDS011;35570;48.218;16.326;2023-06-04T09:42:49;17.73;;;13.10;;
49678;SDS011;35570;48.218;16.326;2023-06-04T09:45:34;18.15;;;11.98;;
49678;SDS011;35570;48.218;16.326;2023-06-04T09:48:00;6.03;;;3.78;;
49678;SDS011;35570;48.218;16.326;2023-06-04T09:50:29;10.35;;;4.32;;
49678;SDS011;35570;48.218;16.326;2023-06-04T09:53:18;10.50;;;5.18;;
49678;SDS011;35570;48.218;16.326;2023-06-04T09:55:57;8.35;;;5.03;;
49678;SDS011;35570;48.218;16.326;2023-06-04T09:58:27;11.00;;;9.82;;
49678;SDS011;35570;48.218;16.326;2023-06-04T10:00:57;17.42;;;12.80;;
49678;SDS011;35570;48.218;16.326;2023-06-04T10:03:23;16.45;;;12.70;;
49678;SDS011;35570;48.218;16.326;2023-06-04T10:05:53;13.48;;;11.15;;
49678;SDS011;35570;48.218;16.326;2023-06-04T10:08:21;12.88;;;8.57;;
49678;SDS011;35570;48.218;16.326;2023-06-04T10:10:49;8.63;;;6.20;;
49678;SDS011;35570;48.218;16.326;2023-06-04T10:13:17;4.43;;;3.13;;
49678;SDS011;35570;48.218;16.326;2023-06-04T10:15:43;5.82;;;5.15;;
49678;SDS011;35570;48.218;16.326;2023-06-04T10:18:13;7.90;;;3.75;;
49678;SDS011;35570;48.218;16.326;2023-06-04T10:20:40;8.90;;;4.53;;
49678;SDS011;35570;48.218;16.326;2023-06-04T10:23:06;6.78;;;4.00;;
49678;SDS011;35570;48.218;16.326;2023-06-04T10:25:34;7.28;;;4.10;;
49678;SDS011;35570;48.218;16.326;2023-06-04T10:28:01;9.13;;;3.90;;
49678;SDS011;35570;48.218;16.326;2023-06-04T10:30:28;10.80;;;3.60;;
49678;SDS011;35570;48.218;16.326;2023-06-04T10:32:54;4.63;;;2.92;;
49678;SDS011;35570;48.218;16.326;2023-06-04T10:35:34;5.60;;;2.40;;
49678;SDS011;35570;48.218;16.326;2023-06-04T10:38:10;8.35;;;3.10;;
49678;SDS011;35570;48.218;16.326;2023-06-04T10:40:38;5.60;;;2.35;;
49678;SDS011;35570;48.218;16.326;2023-06-04T10:43:07;5.70;;;2.60;;
49678;SDS011;35570;48.218;16.326;2023-06-04T10:45:37;6.68;;;2.55;;
49678;SDS011;35570;48.218;16.326;2023-06-04T10:48:04;4.00;;;2.35;;
49678;SDS011;35570;48.218;16.326;2023-06-04T10:50:32;4.53;;;2.55;;
49678;SDS011;35570;48.218;16.326;2023-06-04T10:52:59;4.82;;;2.70;;
49678;SDS011;35570;48.218;16.326;2023-06-04T10:55:28;5.13;;;2.30;;
49678;SDS011;35570;48.218;16.326;2023-06-04T10:57:55;7.80;;;2.22;;
49678;SDS011;35570;48.218;16.326;2023-06-04T11:00:38;8.75;;;2.47;;
49678;SDS011;35570;48.218;16.326;2023-06-04T11:03:11;6.40;;;2.60;;
49678;SDS011;35570;48.218;16.326;2023-06-04T11:05:37;8.10;;;2.08;;
49678;SDS011;35570;48.218;16.326;2023-06-04T11:08:11;3.35;;;2.08;;
49678;SDS011;35570;48.218;16.326;2023-06-04T11:10:40;6.82;;;2.20;;
49678;SDS011;35570;48.218;16.326;2023-06-04T11:13:07;6.22;;;2.05;;
49678;SDS011;35570;48.218;16.326;2023-06-04T11:15:42;11.50;;;2.30;;
49678;SDS011;35570;48.218;16.326;2023-06-04T11:18:17;4.05;;;2.13;;
49678;SDS011;35570;48.218;16.326;2023-06-04T11:20:44;5.45;;;2.22;;
49678;SDS011;35570;48.218;16.326;2023-06-04T11:23:12;9.20;;;2.20;;
49678;SDS011;35570;48.218;16.326;2023-06-04T11:25:38;5.50;;;1.90;;
49678;SDS011;35570;48.218;16.326;2023-06-04T11:28:04;6.68;;;2.13;;
49678;SDS011;35570;48.218;16.326;2023-06-04T11:30:30;5.70;;;1.90;;
49678;SDS011;35570;48.218;16.326;2023-06-04T11:32:59;5.32;;;2.17;;
49678;SDS011;35570;48.218;16.326;2023-06-04T11:35:26;9.55;;;2.10;;
49678;SDS011;35570;48.218;16.326;2023-06-04T11:37:52;5.20;;;1.92;;
49678;SDS011;35570;48.218;16.326;2023-06-04T11:40:19;4.75;;;2.05;;
49678;SDS011;35570;48.218;16.326;2023-06-04T11:42:48;4.47;;;2.17;;
49678;SDS011;35570;48.218;16.326;2023-06-04T11:45:15;4.72;;;1.90;;
49678;SDS011;35570;48.218;16.326;2023-06-04T11:47:49;5.60;;;2.22;;
49678;SDS011;35570;48.218;16.326;2023-06-04T11:50:16;3.40;;;1.90;;
49678;SDS011;35570;48.218;16.326;2023-06-04T11:52:42;5.43;;;2.25;;
49678;SDS011;35570;48.218;16.326;2023-06-04T11:55:08;9.07;;;2.00;;
49678;SDS011;35570;48.218;16.326;2023-06-04T11:57:35;3.05;;;1.95;;
49678;SDS011;35570;48.218;16.326;2023-06-04T12:00:01;6.32;;;2.08;;
49678;SDS011;35570;48.218;16.326;2023-06-04T12:02:27;7.03;;;2.47;;
49678;SDS011;35570;48.218;16.326;2023-06-04T12:04:53;8.20;;;2.13;;
49678;SDS011;35570;48.218;16.326;2023-06-04T12:07:19;3.58;;;2.05;;
49678;SDS011;35570;48.218;16.326;2023-06-04T12:09:49;4.82;;;1.80;;
49678;SDS011;35570;48.218;16.326;2023-06-04T12:12:15;2.80;;;1.83;;
49678;SDS011;35570;48.218;16.326;2023-06-04T12:14:46;4.18;;;2.05;;
49678;SDS011;35570;48.218;16.326;2023-06-04T12:17:12;5.72;;;2.47;;
49678;SDS011;35570;48.218;16.326;2023-06-04T12:19:45;4.10;;;2.22;;
49678;SDS011;35570;48.218;16.326;2023-06-04T12:22:12;4.38;;;1.92;;
49678;SDS011;35570;48.218;16.326;2023-06-04T12:27:13;4.78;;;2.20;;
49678;SDS011;35570;48.218;16.326;2023-06-04T12:29:38;4.35;;;1.80;;
49678;SDS011;35570;48.218;16.326;2023-06-04T12:32:06;6.82;;;2.28;;
49678;SDS011;35570;48.218;16.326;2023-06-04T12:34:41;4.00;;;2.28;;
49678;SDS011;35570;48.218;16.326;2023-06-04T12:37:07;3.95;;;2.60;;
49678;SDS011;35570;48.218;16.326;2023-06-04T12:39:33;3.88;;;2.33;;
49678;SDS011;35570;48.218;16.326;2023-06-04T12:42:01;4.50;;;2.30;;
49678;SDS011;35570;48.218;16.326;2023-06-04T12:44:31;6.07;;;3.25;;
49678;SDS011;35570;48.218;16.326;2023-06-04T12:46:57;8.20;;;2.95;;
49678;SDS011;35570;48.218;16.326;2023-06-04T12:49:23;4.65;;;2.30;;
49678;SDS011;35570;48.218;16.326;2023-06-04T12:51:48;4.93;;;2.45;;
49678;SDS011;35570;48.218;16.326;2023-06-04T12:54:14;6.50;;;3.20;;
49678;SDS011;35570;48.218;16.326;2023-06-04T12:56:40;5.93;;;2.53;;
49678;SDS011;35570;48.218;16.326;2023-06-04T12:59:08;4.55;;;2.10;;
49678;SDS011;35570;48.218;16.326;2023-06-04T13:01:34;4.57;;;2.33;;
49678;SDS011;35570;48.218;16.326;2023-06-04T13:04:00;4.88;;;2.55;;
49678;SDS011;35570;48.218;16.326;2023-06-04T13:06:25;4.30;;;2.20;;
49678;SDS011;35570;48.218;16.326;2023-06-04T13:08:51;5.97;;;2.50;;
49678;SDS011;35570;48.218;16.326;2023-06-04T13:11:17;6.20;;;2.10;;
49678;SDS011;35570;48.218;16.326;2023-06-04T13:13:43;7.15;;;2.10;;
49678;SDS011;35570;48.218;16.326;2023-06-04T13:16:09;3.97;;;2.55;;
49678;SDS011;35570;48.218;16.326;2023-06-04T13:18:34;5.07;;;2.15;;
49678;SDS011;35570;48.218;16.326;2023-06-04T13:21:00;9.38;;;2.40;;
49678;SDS011;35570;48.218;16.326;2023-06-04T13:23:26;6.15;;;2.83;;
49678;SDS011;35570;48.218;16.326;2023-06-04T13:25:52;4.93;;;2.47;;
49678;SDS011;35570;48.218;16.326;2023-06-04T13:28:17;4.68;;;2.55;;
49678;SDS011;35570;48.218;16.326;2023-06-04T13:30:43;10.40;;;3.00;;
49678;SDS011;35570;48.218;16.326;2023-06-04T13:33:09;4.88;;;2.40;;
49678;SDS011;35570;48.218;16.326;2023-06-04T13:35:35;4.00;;;2.75;;
49678;SDS011;35570;48.218;16.326;2023-06-04T13:38:04;4.05;;;2.60;;
49678;SDS011;35570;48.218;16.326;2023-06-04T13:40:36;6.10;;;2.83;;
49678;SDS011;35570;48.218;16.326;2023-06-04T13:43:02;9.02;;;2.72;;
49678;SDS011;35570;48.218;16.326;2023-06-04T13:45:29;7.50;;;2.50;;
49678;SDS011;35570;48.218;16.326;2023-06-04T13:47:55;6.95;;;2.88;;
49678;SDS011;35570;48.218;16.326;2023-06-04T13:50:24;4.20;;;2.20;;
49678;SDS011;35570;48.218;16.326;2023-06-04T13:52:50;4.45;;;2.20;;
49678;SDS011;35570;48.218;16.326;2023-06-04T13:55:17;7.13;;;2.40;;
49678;SDS011;35570;48.218;16.326;2023-06-04T13:57:43;4.25;;;2.97;;
49678;SDS011;35570;48.218;16.326;2023-06-04T14:00:08;6.85;;;2.65;;
49678;SDS011;35570;48.218;16.326;2023-06-04T14:02:34;4.22;;;3.28;;
49678;SDS011;35570;48.218;16.326;2023-06-04T14:05:00;4.22;;;2.35;;
49678;SDS011;35570;48.218;16.326;2023-06-04T14:07:26;5.68;;;2.47;;
49678;SDS011;35570;48.218;16.326;2023-06-04T14:09:51;5.63;;;2.70;;
49678;SDS011;35570;48.218;16.326;2023-06-04T14:12:20;7.10;;;3.05;;
49678;SDS011;35570;48.218;16.326;2023-06-04T14:14:47;3.75;;;2.78;;
49678;SDS011;35570;48.218;16.326;2023-06-04T14:17:12;4.97;;;2.45;;
49678;SDS011;35570;48.218;16.326;2023-06-04T14:19:41;6.85;;;2.95;;
49678;SDS011;35570;48.218;16.326;2023-06-04T14:22:07;6.50;;;2.85;;
49678;SDS011;35570;48.218;16.326;2023-06-04T14:24:33;6.38;;;2.50;;
49678;SDS011;35570;48.218;16.326;2023-06-04T14:29:26;3.05;;;2.67;;
49678;SDS011;35570;48.218;16.326;2023-06-04T14:31:52;7.22;;;2.75;;
49678;SDS011;35570;48.218;16.326;2023-06-04T14:39:28;4.82;;;2.15;;
49678;SDS011;35570;48.218;16.326;2023-06-04T14:41:54;8.00;;;2.20;;
49678;SDS011;35570;48.218;16.326;2023-06-04T14:44:20;6.75;;;2.22;;
49678;SDS011;35570;48.218;16.326;2023-06-04T14:49:21;2.00;;;1.65;;
49678;SDS011;35570;48.218;16.326;2023-06-04T14:51:47;4.68;;;2.38;;